sensor_id;sensor_type;location;lat;lon;timestamp;P1;durP1;ratioP1;P2;durP2;ratioP2
8938;SDS011;4504;48.810;9.172;2023-09-07T00:00:16;115.37;;;4.17;;
8938;SDS011;4504;48.810;9.172;2023-09-07T00:02:43;114.97;;;4.30;;
8938;SDS011;4504;48.810;9.172;2023-09-07T00:05:11;116.37;;;4.77;;
8938;SDS011;4504;48.810;9.172;2023-09-07T00:07:39;119.43;;;4.37;;
8938;SDS011;4504;48.810;9.172;2023-09-07T00:10:06;116.97;;;4.50;;
8938;SDS011;4504;48.810;9.172;2023-09-07T00:12:34;132.90;;;4.43;;
8938;SDS011;4504;48.810;9.172;2023-09-07T00:15:04;114.97;;;4.10;;
8938;SDS011;4504;48.810;9.172;2023-09-07T00:17:32;115.37;;;3.90;;
8938;SDS011;4504;48.810;9.172;2023-09-07T00:19:59;115.70;;;4.47;;
8938;SDS011;4504;48.810;9.172;2023-09-07T00:22:30;115.23;;;4.10;;
8938;SDS011;4504;48.810;9.172;2023-09-07T00:24:58;116.17;;;4.37;;
8938;SDS011;4504;48.810;9.172;2023-09-07T00:27:25;118.83;;;3.87;;
8938;SDS011;4504;48.810;9.172;2023-09-07T00:29:52;117.17;;;4.50;;
8938;SDS011;4504;48.810;9.172;2023-09-07T00:32:19;115.47;;;4.00;;
8938;SDS011;4504;48.810;9.172;2023-09-07T00:34:46;115.67;;;3.83;;
8938;SDS011;4504;48.810;9.172;2023-09-07T00:37:13;117.77;;;4.07;;
8938;SDS011;4504;48.810;9.172;2023-09-07T00:39:41;115.40;;;4.33;;
8938;SDS011;4504;48.810;9.172;2023-09-07T00:42:09;116.07;;;4.13;;
8938;SDS011;4504;48.810;9.172;2023-09-07T00:44:36;123.43;;;4.10;;
8938;SDS011;4504;48.810;9.172;2023-09-07T00:47:03;115.53;;;3.30;;
8938;SDS011;4504;48.810;9.172;2023-09-07T00:49:31;114.97;;;3.73;;
8938;SDS011;4504;48.810;9.172;2023-09-07T00:51:58;116.73;;;3.70;;
8938;SDS011;4504;48.810;9.172;2023-09-07T00:54:25;116.60;;;4.00;;
8938;SDS011;4504;48.810;9.172;2023-09-07T00:56:53;115.90;;;3.80;;
8938;SDS011;4504;48.810;9.172;2023-09-07T00:59:21;117.77;;;3.90;;
8938;SDS011;4504;48.810;9.172;2023-09-07T01:01:49;116.80;;;4.40;;
8938;SDS011;4504;48.810;9.172;2023-09-07T01:04:18;116.60;;;4.20;;
8938;SDS011;4504;48.810;9.172;2023-09-07T01:06:47;115.67;;;4.37;;
8938;SDS011;4504;48.810;9.172;2023-09-07T01:09:21;116.53;;;4.50;;
8938;SDS011;4504;48.810;9.172;2023-09-07T01:11:53;116.07;;;4.63;;
8938;SDS011;4504;48.810;9.172;2023-09-07T01:14:20;116.37;;;4.53;;
8938;SDS011;4504;48.810;9.172;2023-09-07T01:16:48;116.43;;;4.37;;
8938;SDS011;4504;48.810;9.172;2023-09-07T01:19:16;117.00;;;4.57;;
8938;SDS011;4504;48.810;9.172;2023-09-07T01:21:44;116.40;;;4.53;;
8938;SDS011;4504;48.810;9.172;2023-09-07T01:24:12;115.73;;;4.27;;
8938;SDS011;4504;48.810;9.172;2023-09-07T01:26:42;115.87;;;3.83;;
8938;SDS011;4504;48.810;9.172;2023-09-07T01:29:14;118.17;;;4.53;;
8938;SDS011;4504;48.810;9.172;2023-09-07T01:31:42;118.57;;;4.13;;
8938;SDS011;4504;48.810;9.172;2023-09-07T01:34:09;114.80;;;3.73;;
8938;SDS011;4504;48.810;9.172;2023-09-07T01:36:37;116.77;;;3.97;;
8938;SDS011;4504;48.810;9.172;2023-09-07T01:39:05;123.10;;;4.00;;
8938;SDS011;4504;48.810;9.172;2023-09-07T01:41:33;117.10;;;4.10;;
8938;SDS011;4504;48.810;9.172;2023-09-07T01:44:00;118.67;;;4.20;;
8938;SDS011;4504;48.810;9.172;2023-09-07T01:46:27;116.97;;;4.23;;
8938;SDS011;4504;48.810;9.172;2023-09-07T01:48:54;117.57;;;4.23;;
8938;SDS011;4504;48.810;9.172;2023-09-07T01:51:21;118.00;;;4.20;;
8938;SDS011;4504;48.810;9.172;2023-09-07T01:53:48;116.10;;;4.50;;
8938;SDS011;4504;48.810;9.172;2023-09-07T01:56:17;116.17;;;4.23;;
8938;SDS011;4504;48.810;9.172;2023-09-07T01:58:44;117.30;;;5.03;;
8938;SDS011;4504;48.810;9.172;2023-09-07T02:01:19;119.47;;;4.53;;
8938;SDS011;4504;48.810;9.172;2023-09-07T02:03:49;116.83;;;4.10;;
8938;SDS011;4504;48.810;9.172;2023-09-07T02:06:17;116.00;;;3.80;;
8938;SDS011;4504;48.810;9.172;2023-09-07T02:08:44;118.87;;;4.50;;
8938;SDS011;4504;48.810;9.172;2023-09-07T02:11:12;118.00;;;4.00;;
8938;SDS011;4504;48.810;9.172;2023-09-07T02:13:42;116.60;;;4.00;;
8938;SDS011;4504;48.810;9.172;2023-09-07T02:16:10;116.87;;;4.10;;
8938;SDS011;4504;48.810;9.172;2023-09-07T02:18:37;116.70;;;4.20;;
8938;SDS011;4504;48.810;9.172;2023-09-07T02:21:08;116.13;;;4.37;;
8938;SDS011;4504;48.810;9.172;2023-09-07T02:23:36;116.77;;;4.47;;
8938;SDS011;4504;48.810;9.172;2023-09-07T02:26:03;116.53;;;4.00;;
8938;SDS011;4504;48.810;9.172;2023-09-07T02:28:30;118.33;;;4.20;;
8938;SDS011;4504;48.810;9.172;2023-09-07T02:31:03;114.73;;;4.13;;
8938;SDS011;4504;48.810;9.172;2023-09-07T02:33:31;115.67;;;4.27;;
8938;SDS011;4504;48.810;9.172;2023-09-07T02:35:58;115.87;;;3.90;;
8938;SDS011;4504;48.810;9.172;2023-09-07T02:38:26;115.80;;;4.63;;
8938;SDS011;4504;48.810;9.172;2023-09-07T02:40:54;117.60;;;4.67;;
8938;SDS011;4504;48.810;9.172;2023-09-07T02:43:21;115.17;;;3.83;;
8938;SDS011;4504;48.810;9.172;2023-09-07T02:45:48;116.00;;;4.20;;
8938;SDS011;4504;48.810;9.172;2023-09-07T02:48:19;117.60;;;4.90;;
8938;SDS011;4504;48.810;9.172;2023-09-07T02:50:47;116.83;;;4.70;;
8938;SDS011;4504;48.810;9.172;2023-09-07T02:53:16;116.10;;;4.37;;
8938;SDS011;4504;48.810;9.172;2023-09-07T02:55:43;116.50;;;4.50;;
8938;SDS011;4504;48.810;9.172;2023-09-07T02:58:10;117.07;;;4.90;;
8938;SDS011;4504;48.810;9.172;2023-09-07T03:00:40;117.17;;;4.87;;
8938;SDS011;4504;48.810;9.172;2023-09-07T03:03:10;117.13;;;4.20;;
8938;SDS011;4504;48.810;9.172;2023-09-07T03:05:40;116.27;;;4.57;;
8938;SDS011;4504;48.810;9.172;2023-09-07T03:08:08;118.00;;;4.00;;
8938;SDS011;4504;48.810;9.172;2023-09-07T03:10:35;118.77;;;5.17;;
8938;SDS011;4504;48.810;9.172;2023-09-07T03:13:03;120.20;;;4.40;;
8938;SDS011;4504;48.810;9.172;2023-09-07T03:15:30;118.07;;;4.50;;
8938;SDS011;4504;48.810;9.172;2023-09-07T03:17:58;116.10;;;4.07;;
8938;SDS011;4504;48.810;9.172;2023-09-07T03:20:25;115.67;;;4.07;;
8938;SDS011;4504;48.810;9.172;2023-09-07T03:22:54;116.27;;;4.70;;
8938;SDS011;4504;48.810;9.172;2023-09-07T03:25:21;119.30;;;5.30;;
8938;SDS011;4504;48.810;9.172;2023-09-07T03:27:48;117.77;;;4.60;;
8938;SDS011;4504;48.810;9.172;2023-09-07T03:30:15;117.93;;;4.77;;
8938;SDS011;4504;48.810;9.172;2023-09-07T03:32:43;121.27;;;4.70;;
8938;SDS011;4504;48.810;9.172;2023-09-07T03:35:11;117.17;;;4.53;;
8938;SDS011;4504;48.810;9.172;2023-09-07T03:37:38;117.27;;;5.00;;
8938;SDS011;4504;48.810;9.172;2023-09-07T03:40:08;116.73;;;4.87;;
8938;SDS011;4504;48.810;9.172;2023-09-07T03:42:36;116.70;;;4.90;;
8938;SDS011;4504;48.810;9.172;2023-09-07T03:45:03;116.40;;;4.87;;
8938;SDS011;4504;48.810;9.172;2023-09-07T03:47:32;123.90;;;7.10;;
8938;SDS011;4504;48.810;9.172;2023-09-07T03:50:00;118.63;;;5.10;;
8938;SDS011;4504;48.810;9.172;2023-09-07T03:52:28;117.77;;;4.63;;
8938;SDS011;4504;48.810;9.172;2023-09-07T03:54:59;121.33;;;4.30;;
8938;SDS011;4504;48.810;9.172;2023-09-07T03:57:29;119.87;;;5.00;;
8938;SDS011;4504;48.810;9.172;2023-09-07T03:59:56;121.70;;;5.10;;
8938;SDS011;4504;48.810;9.172;2023-09-07T04:02:24;120.17;;;5.87;;
8938;SDS011;4504;48.810;9.172;2023-09-07T04:04:51;117.10;;;4.97;;
8938;SDS011;4504;48.810;9.172;2023-09-07T04:07:20;117.67;;;5.03;;
8938;SDS011;4504;48.810;9.172;2023-09-07T04:09:49;118.50;;;4.80;;
8938;SDS011;4504;48.810;9.172;2023-09-07T04:12:17;119.50;;;5.47;;
8938;SDS011;4504;48.810;9.172;2023-09-07T04:14:45;118.93;;;5.03;;
8938;SDS011;4504;48.810;9.172;2023-09-07T04:17:13;124.67;;;5.30;;
8938;SDS011;4504;48.810;9.172;2023-09-07T04:19:40;118.77;;;5.33;;
8938;SDS011;4504;48.810;9.172;2023-09-07T04:22:08;118.27;;;4.87;;
8938;SDS011;4504;48.810;9.172;2023-09-07T04:24:37;118.87;;;4.90;;
8938;SDS011;4504;48.810;9.172;2023-09-07T04:27:05;119.23;;;5.33;;
8938;SDS011;4504;48.810;9.172;2023-09-07T04:29:33;119.43;;;5.50;;
8938;SDS011;4504;48.810;9.172;2023-09-07T04:32:02;119.27;;;5.43;;
8938;SDS011;4504;48.810;9.172;2023-09-07T04:34:29;118.90;;;4.70;;
8938;SDS011;4504;48.810;9.172;2023-09-07T04:36:57;120.10;;;6.00;;
8938;SDS011;4504;48.810;9.172;2023-09-07T04:39:24;120.23;;;5.70;;
8938;SDS011;4504;48.810;9.172;2023-09-07T04:41:52;120.40;;;5.40;;
8938;SDS011;4504;48.810;9.172;2023-09-07T04:44:19;117.90;;;4.70;;
8938;SDS011;4504;48.810;9.172;2023-09-07T04:46:46;119.27;;;4.53;;
8938;SDS011;4504;48.810;9.172;2023-09-07T04:49:14;118.03;;;5.30;;
8938;SDS011;4504;48.810;9.172;2023-09-07T04:51:41;122.60;;;5.60;;
8938;SDS011;4504;48.810;9.172;2023-09-07T04:54:08;135.53;;;5.40;;
8938;SDS011;4504;48.810;9.172;2023-09-07T04:56:35;118.57;;;5.40;;
8938;SDS011;4504;48.810;9.172;2023-09-07T04:59:02;122.00;;;5.33;;
8938;SDS011;4504;48.810;9.172;2023-09-07T05:01:30;120.97;;;5.57;;
8938;SDS011;4504;48.810;9.172;2023-09-07T05:03:57;118.43;;;4.83;;
8938;SDS011;4504;48.810;9.172;2023-09-07T05:06:26;119.33;;;4.97;;
8938;SDS011;4504;48.810;9.172;2023-09-07T05:08:53;116.37;;;4.83;;
8938;SDS011;4504;48.810;9.172;2023-09-07T05:11:20;118.57;;;5.07;;
8938;SDS011;4504;48.810;9.172;2023-09-07T05:13:47;118.50;;;4.70;;
8938;SDS011;4504;48.810;9.172;2023-09-07T05:16:15;118.57;;;5.57;;
8938;SDS011;4504;48.810;9.172;2023-09-07T05:18:42;119.27;;;5.40;;
8938;SDS011;4504;48.810;9.172;2023-09-07T05:21:12;117.77;;;4.50;;
8938;SDS011;4504;48.810;9.172;2023-09-07T05:23:41;120.40;;;5.20;;
8938;SDS011;4504;48.810;9.172;2023-09-07T05:26:08;118.20;;;5.23;;
8938;SDS011;4504;48.810;9.172;2023-09-07T05:28:36;118.30;;;4.63;;
8938;SDS011;4504;48.810;9.172;2023-09-07T05:31:03;120.60;;;6.53;;
8938;SDS011;4504;48.810;9.172;2023-09-07T05:33:30;126.80;;;6.13;;
8938;SDS011;4504;48.810;9.172;2023-09-07T05:35:57;121.27;;;6.00;;
8938;SDS011;4504;48.810;9.172;2023-09-07T05:38:24;117.77;;;4.70;;
8938;SDS011;4504;48.810;9.172;2023-09-07T05:40:54;117.20;;;4.80;;
8938;SDS011;4504;48.810;9.172;2023-09-07T05:43:22;116.70;;;4.70;;
8938;SDS011;4504;48.810;9.172;2023-09-07T05:45:50;118.07;;;4.93;;
8938;SDS011;4504;48.810;9.172;2023-09-07T05:48:17;118.60;;;4.90;;
8938;SDS011;4504;48.810;9.172;2023-09-07T05:50:45;117.33;;;5.00;;
8938;SDS011;4504;48.810;9.172;2023-09-07T05:53:12;117.53;;;5.20;;
8938;SDS011;4504;48.810;9.172;2023-09-07T05:55:39;118.30;;;5.53;;
8938;SDS011;4504;48.810;9.172;2023-09-07T05:58:08;118.37;;;5.23;;
8938;SDS011;4504;48.810;9.172;2023-09-07T06:00:39;118.67;;;5.20;;
8938;SDS011;4504;48.810;9.172;2023-09-07T06:03:07;120.00;;;5.17;;
8938;SDS011;4504;48.810;9.172;2023-09-07T06:05:34;117.97;;;5.20;;
8938;SDS011;4504;48.810;9.172;2023-09-07T06:08:03;117.60;;;5.20;;
8938;SDS011;4504;48.810;9.172;2023-09-07T06:10:31;117.30;;;5.10;;
8938;SDS011;4504;48.810;9.172;2023-09-07T06:12:59;117.57;;;5.77;;
8938;SDS011;4504;48.810;9.172;2023-09-07T06:15:27;115.60;;;4.90;;
8938;SDS011;4504;48.810;9.172;2023-09-07T06:17:55;119.07;;;5.67;;
8938;SDS011;4504;48.810;9.172;2023-09-07T06:20:23;122.67;;;5.80;;
8938;SDS011;4504;48.810;9.172;2023-09-07T06:22:50;119.10;;;6.07;;
8938;SDS011;4504;48.810;9.172;2023-09-07T06:25:18;117.73;;;5.10;;
8938;SDS011;4504;48.810;9.172;2023-09-07T06:27:47;119.60;;;4.87;;
8938;SDS011;4504;48.810;9.172;2023-09-07T06:30:14;117.20;;;4.60;;
8938;SDS011;4504;48.810;9.172;2023-09-07T06:32:43;115.97;;;4.70;;
8938;SDS011;4504;48.810;9.172;2023-09-07T06:35:11;118.00;;;5.40;;
8938;SDS011;4504;48.810;9.172;2023-09-07T06:37:38;115.80;;;5.00;;
8938;SDS011;4504;48.810;9.172;2023-09-07T06:40:07;116.77;;;5.00;;
8938;SDS011;4504;48.810;9.172;2023-09-07T06:42:36;115.03;;;4.70;;
8938;SDS011;4504;48.810;9.172;2023-09-07T06:45:09;123.17;;;6.10;;
8938;SDS011;4504;48.810;9.172;2023-09-07T06:47:36;115.60;;;4.70;;
8938;SDS011;4504;48.810;9.172;2023-09-07T06:50:05;123.47;;;5.80;;
8938;SDS011;4504;48.810;9.172;2023-09-07T06:52:32;115.87;;;5.30;;
8938;SDS011;4504;48.810;9.172;2023-09-07T06:55:00;115.27;;;4.63;;
8938;SDS011;4504;48.810;9.172;2023-09-07T06:57:27;117.07;;;5.17;;
8938;SDS011;4504;48.810;9.172;2023-09-07T06:59:54;115.80;;;4.70;;
8938;SDS011;4504;48.810;9.172;2023-09-07T07:02:22;115.37;;;4.90;;
8938;SDS011;4504;48.810;9.172;2023-09-07T07:04:49;114.40;;;4.70;;
8938;SDS011;4504;48.810;9.172;2023-09-07T07:07:18;127.50;;;4.40;;
8938;SDS011;4504;48.810;9.172;2023-09-07T07:09:45;114.60;;;4.70;;
8938;SDS011;4504;48.810;9.172;2023-09-07T07:12:13;116.00;;;5.10;;
8938;SDS011;4504;48.810;9.172;2023-09-07T07:14:40;114.50;;;4.40;;
8938;SDS011;4504;48.810;9.172;2023-09-07T07:17:08;113.60;;;4.13;;
8938;SDS011;4504;48.810;9.172;2023-09-07T07:19:35;113.70;;;4.43;;
8938;SDS011;4504;48.810;9.172;2023-09-07T07:22:03;115.53;;;4.77;;
8938;SDS011;4504;48.810;9.172;2023-09-07T07:24:33;114.60;;;4.70;;
8938;SDS011;4504;48.810;9.172;2023-09-07T07:27:01;114.93;;;4.80;;
8938;SDS011;4504;48.810;9.172;2023-09-07T07:29:31;114.10;;;4.10;;
8938;SDS011;4504;48.810;9.172;2023-09-07T07:31:58;113.80;;;4.10;;
8938;SDS011;4504;48.810;9.172;2023-09-07T07:34:26;113.43;;;4.67;;
8938;SDS011;4504;48.810;9.172;2023-09-07T07:36:54;113.50;;;4.43;;
8938;SDS011;4504;48.810;9.172;2023-09-07T07:39:22;113.37;;;3.97;;
8938;SDS011;4504;48.810;9.172;2023-09-07T07:41:51;115.57;;;4.80;;
8938;SDS011;4504;48.810;9.172;2023-09-07T07:44:18;114.27;;;4.87;;
8938;SDS011;4504;48.810;9.172;2023-09-07T07:46:46;113.57;;;3.93;;
8938;SDS011;4504;48.810;9.172;2023-09-07T07:49:14;132.23;;;4.50;;
8938;SDS011;4504;48.810;9.172;2023-09-07T07:51:42;116.83;;;5.10;;
8938;SDS011;4504;48.810;9.172;2023-09-07T07:54:09;113.80;;;4.70;;
8938;SDS011;4504;48.810;9.172;2023-09-07T07:56:38;114.30;;;4.60;;
8938;SDS011;4504;48.810;9.172;2023-09-07T07:59:07;113.50;;;4.43;;
8938;SDS011;4504;48.810;9.172;2023-09-07T08:01:34;112.20;;;3.97;;
8938;SDS011;4504;48.810;9.172;2023-09-07T08:04:10;115.87;;;4.37;;
8938;SDS011;4504;48.810;9.172;2023-09-07T08:06:37;113.40;;;4.20;;
8938;SDS011;4504;48.810;9.172;2023-09-07T08:09:04;112.57;;;4.13;;
8938;SDS011;4504;48.810;9.172;2023-09-07T08:11:33;121.57;;;4.80;;
8938;SDS011;4504;48.810;9.172;2023-09-07T08:14:01;117.20;;;4.77;;
8938;SDS011;4504;48.810;9.172;2023-09-07T08:16:29;113.40;;;4.20;;
8938;SDS011;4504;48.810;9.172;2023-09-07T08:18:56;113.53;;;4.40;;
8938;SDS011;4504;48.810;9.172;2023-09-07T08:21:24;111.97;;;3.93;;
8938;SDS011;4504;48.810;9.172;2023-09-07T08:23:51;114.00;;;4.07;;
8938;SDS011;4504;48.810;9.172;2023-09-07T08:26:19;111.47;;;4.27;;
8938;SDS011;4504;48.810;9.172;2023-09-07T08:28:46;114.43;;;4.30;;
8938;SDS011;4504;48.810;9.172;2023-09-07T08:31:13;114.07;;;4.23;;
8938;SDS011;4504;48.810;9.172;2023-09-07T08:33:47;113.87;;;4.13;;
8938;SDS011;4504;48.810;9.172;2023-09-07T08:36:16;112.67;;;3.90;;
8938;SDS011;4504;48.810;9.172;2023-09-07T08:38:43;113.87;;;4.20;;
8938;SDS011;4504;48.810;9.172;2023-09-07T08:41:10;114.20;;;4.20;;
8938;SDS011;4504;48.810;9.172;2023-09-07T08:43:39;112.23;;;3.57;;
8938;SDS011;4504;48.810;9.172;2023-09-07T08:46:13;114.47;;;4.80;;
8938;SDS011;4504;48.810;9.172;2023-09-07T08:48:41;112.43;;;4.80;;
8938;SDS011;4504;48.810;9.172;2023-09-07T08:51:10;115.47;;;3.87;;
8938;SDS011;4504;48.810;9.172;2023-09-07T08:53:39;113.70;;;4.53;;
8938;SDS011;4504;48.810;9.172;2023-09-07T08:56:06;113.63;;;4.10;;
8938;SDS011;4504;48.810;9.172;2023-09-07T08:58:38;111.83;;;3.83;;
8938;SDS011;4504;48.810;9.172;2023-09-07T09:01:15;114.97;;;4.47;;
8938;SDS011;4504;48.810;9.172;2023-09-07T09:03:42;113.80;;;4.60;;
8938;SDS011;4504;48.810;9.172;2023-09-07T09:06:11;114.17;;;4.80;;
8938;SDS011;4504;48.810;9.172;2023-09-07T09:08:46;114.00;;;4.60;;
8938;SDS011;4504;48.810;9.172;2023-09-07T09:11:15;112.17;;;4.03;;
8938;SDS011;4504;48.810;9.172;2023-09-07T09:13:43;111.00;;;3.90;;
8938;SDS011;4504;48.810;9.172;2023-09-07T09:16:10;111.50;;;4.03;;
8938;SDS011;4504;48.810;9.172;2023-09-07T09:18:46;113.97;;;4.20;;
8938;SDS011;4504;48.810;9.172;2023-09-07T09:21:15;115.80;;;4.27;;
8938;SDS011;4504;48.810;9.172;2023-09-07T09:23:42;113.47;;;4.20;;
8938;SDS011;4504;48.810;9.172;2023-09-07T09:26:10;112.90;;;4.17;;
8938;SDS011;4504;48.810;9.172;2023-09-07T09:28:38;113.17;;;4.80;;
8938;SDS011;4504;48.810;9.172;2023-09-07T09:31:05;111.27;;;4.03;;
8938;SDS011;4504;48.810;9.172;2023-09-07T09:33:37;112.57;;;4.93;;
8938;SDS011;4504;48.810;9.172;2023-09-07T09:36:04;111.93;;;3.93;;
8938;SDS011;4504;48.810;9.172;2023-09-07T09:38:34;111.63;;;4.10;;
8938;SDS011;4504;48.810;9.172;2023-09-07T09:41:02;112.03;;;4.20;;
8938;SDS011;4504;48.810;9.172;2023-09-07T09:43:30;112.57;;;3.90;;
8938;SDS011;4504;48.810;9.172;2023-09-07T09:45:57;110.60;;;3.87;;
8938;SDS011;4504;48.810;9.172;2023-09-07T09:48:26;111.90;;;3.90;;
8938;SDS011;4504;48.810;9.172;2023-09-07T09:50:54;111.43;;;3.30;;
8938;SDS011;4504;48.810;9.172;2023-09-07T09:53:22;110.90;;;3.90;;
8938;SDS011;4504;48.810;9.172;2023-09-07T09:55:53;111.30;;;3.33;;
8938;SDS011;4504;48.810;9.172;2023-09-07T09:58:20;110.90;;;3.70;;
8938;SDS011;4504;48.810;9.172;2023-09-07T10:00:48;112.00;;;4.40;;
8938;SDS011;4504;48.810;9.172;2023-09-07T10:03:17;110.67;;;4.17;;
8938;SDS011;4504;48.810;9.172;2023-09-07T10:05:49;108.70;;;3.40;;
8938;SDS011;4504;48.810;9.172;2023-09-07T10:08:17;108.70;;;3.53;;
8938;SDS011;4504;48.810;9.172;2023-09-07T10:10:46;109.00;;;3.80;;
8938;SDS011;4504;48.810;9.172;2023-09-07T10:13:15;110.70;;;3.63;;
8938;SDS011;4504;48.810;9.172;2023-09-07T10:15:43;112.60;;;4.30;;
8938;SDS011;4504;48.810;9.172;2023-09-07T10:18:11;109.50;;;3.87;;
8938;SDS011;4504;48.810;9.172;2023-09-07T10:20:52;110.23;;;3.73;;
8938;SDS011;4504;48.810;9.172;2023-09-07T10:23:21;110.20;;;3.40;;
8938;SDS011;4504;48.810;9.172;2023-09-07T10:25:50;110.90;;;3.60;;
8938;SDS011;4504;48.810;9.172;2023-09-07T10:28:20;109.40;;;3.60;;
8938;SDS011;4504;48.810;9.172;2023-09-07T10:30:58;109.53;;;3.77;;
8938;SDS011;4504;48.810;9.172;2023-09-07T10:33:26;111.40;;;4.20;;
8938;SDS011;4504;48.810;9.172;2023-09-07T10:35:53;109.07;;;4.00;;
8938;SDS011;4504;48.810;9.172;2023-09-07T10:38:20;111.50;;;3.77;;
8938;SDS011;4504;48.810;9.172;2023-09-07T10:40:47;109.07;;;3.27;;
8938;SDS011;4504;48.810;9.172;2023-09-07T10:43:14;110.50;;;3.77;;
8938;SDS011;4504;48.810;9.172;2023-09-07T10:45:45;110.10;;;3.93;;
8938;SDS011;4504;48.810;9.172;2023-09-07T10:48:12;109.50;;;3.70;;
8938;SDS011;4504;48.810;9.172;2023-09-07T10:50:42;110.30;;;3.63;;
8938;SDS011;4504;48.810;9.172;2023-09-07T10:53:11;108.10;;;3.10;;
8938;SDS011;4504;48.810;9.172;2023-09-07T10:55:39;108.97;;;3.60;;
8938;SDS011;4504;48.810;9.172;2023-09-07T10:58:08;108.57;;;3.10;;
8938;SDS011;4504;48.810;9.172;2023-09-07T11:00:36;108.87;;;3.50;;
8938;SDS011;4504;48.810;9.172;2023-09-07T11:03:08;107.30;;;3.20;;
8938;SDS011;4504;48.810;9.172;2023-09-07T11:05:36;110.10;;;3.53;;
8938;SDS011;4504;48.810;9.172;2023-09-07T11:08:05;109.10;;;3.80;;
8938;SDS011;4504;48.810;9.172;2023-09-07T11:10:33;110.73;;;3.40;;
8938;SDS011;4504;48.810;9.172;2023-09-07T11:13:01;110.70;;;4.23;;
8938;SDS011;4504;48.810;9.172;2023-09-07T11:15:30;106.97;;;3.30;;
8938;SDS011;4504;48.810;9.172;2023-09-07T11:17:59;106.00;;;3.27;;
8938;SDS011;4504;48.810;9.172;2023-09-07T11:20:33;120.60;;;3.30;;
8938;SDS011;4504;48.810;9.172;2023-09-07T11:23:00;105.00;;;3.07;;
8938;SDS011;4504;48.810;9.172;2023-09-07T11:25:33;106.27;;;3.33;;
8938;SDS011;4504;48.810;9.172;2023-09-07T11:28:01;105.70;;;2.93;;
8938;SDS011;4504;48.810;9.172;2023-09-07T11:30:29;109.60;;;3.30;;
8938;SDS011;4504;48.810;9.172;2023-09-07T11:33:04;105.57;;;2.70;;
8938;SDS011;4504;48.810;9.172;2023-09-07T11:35:35;105.37;;;3.10;;
8938;SDS011;4504;48.810;9.172;2023-09-07T11:38:03;106.23;;;3.03;;
8938;SDS011;4504;48.810;9.172;2023-09-07T11:40:32;104.90;;;2.80;;
8938;SDS011;4504;48.810;9.172;2023-09-07T11:42:59;105.07;;;2.30;;
8938;SDS011;4504;48.810;9.172;2023-09-07T11:45:26;105.17;;;3.57;;
8938;SDS011;4504;48.810;9.172;2023-09-07T11:47:53;106.37;;;3.17;;
8938;SDS011;4504;48.810;9.172;2023-09-07T11:50:22;105.27;;;3.00;;
8938;SDS011;4504;48.810;9.172;2023-09-07T11:52:52;104.97;;;3.03;;
8938;SDS011;4504;48.810;9.172;2023-09-07T11:55:19;104.47;;;2.87;;
8938;SDS011;4504;48.810;9.172;2023-09-07T11:57:46;104.57;;;2.67;;
8938;SDS011;4504;48.810;9.172;2023-09-07T12:00:13;104.37;;;3.10;;
8938;SDS011;4504;48.810;9.172;2023-09-07T12:02:41;110.10;;;3.70;;
8938;SDS011;4504;48.810;9.172;2023-09-07T12:05:08;103.60;;;2.77;;
8938;SDS011;4504;48.810;9.172;2023-09-07T12:07:36;103.97;;;2.70;;
8938;SDS011;4504;48.810;9.172;2023-09-07T12:10:05;105.13;;;2.73;;
8938;SDS011;4504;48.810;9.172;2023-09-07T12:12:35;103.87;;;2.77;;
8938;SDS011;4504;48.810;9.172;2023-09-07T12:15:03;104.60;;;2.80;;
8938;SDS011;4504;48.810;9.172;2023-09-07T12:17:31;104.53;;;2.90;;
8938;SDS011;4504;48.810;9.172;2023-09-07T12:19:58;105.33;;;2.90;;
8938;SDS011;4504;48.810;9.172;2023-09-07T12:22:26;105.23;;;2.93;;
8938;SDS011;4504;48.810;9.172;2023-09-07T12:24:53;105.00;;;2.53;;
8938;SDS011;4504;48.810;9.172;2023-09-07T12:27:21;104.80;;;2.80;;
8938;SDS011;4504;48.810;9.172;2023-09-07T12:29:48;103.63;;;2.80;;
8938;SDS011;4504;48.810;9.172;2023-09-07T12:32:16;104.27;;;2.80;;
8938;SDS011;4504;48.810;9.172;2023-09-07T12:34:43;103.17;;;2.63;;
8938;SDS011;4504;48.810;9.172;2023-09-07T12:37:10;104.23;;;2.97;;
8938;SDS011;4504;48.810;9.172;2023-09-07T12:39:37;103.07;;;2.60;;
8938;SDS011;4504;48.810;9.172;2023-09-07T12:42:04;106.17;;;2.37;;
8938;SDS011;4504;48.810;9.172;2023-09-07T12:44:33;104.60;;;2.70;;
8938;SDS011;4504;48.810;9.172;2023-09-07T12:47:00;103.97;;;2.40;;
8938;SDS011;4504;48.810;9.172;2023-09-07T12:49:27;105.10;;;2.80;;
8938;SDS011;4504;48.810;9.172;2023-09-07T12:51:54;101.50;;;2.70;;
8938;SDS011;4504;48.810;9.172;2023-09-07T12:54:21;102.77;;;3.23;;
8938;SDS011;4504;48.810;9.172;2023-09-07T12:56:48;101.60;;;2.50;;
8938;SDS011;4504;48.810;9.172;2023-09-07T12:59:16;101.60;;;2.50;;
8938;SDS011;4504;48.810;9.172;2023-09-07T13:01:44;100.60;;;2.37;;
8938;SDS011;4504;48.810;9.172;2023-09-07T13:04:12;102.07;;;2.60;;
8938;SDS011;4504;48.810;9.172;2023-09-07T13:06:39;100.57;;;2.50;;
8938;SDS011;4504;48.810;9.172;2023-09-07T13:09:06;99.77;;;2.20;;
8938;SDS011;4504;48.810;9.172;2023-09-07T13:11:34;101.23;;;2.97;;
8938;SDS011;4504;48.810;9.172;2023-09-07T13:14:01;101.00;;;2.30;;
8938;SDS011;4504;48.810;9.172;2023-09-07T13:16:28;101.27;;;2.50;;
8938;SDS011;4504;48.810;9.172;2023-09-07T13:18:59;103.10;;;2.50;;
8938;SDS011;4504;48.810;9.172;2023-09-07T13:21:26;102.93;;;2.40;;
8938;SDS011;4504;48.810;9.172;2023-09-07T13:23:53;100.13;;;2.10;;
8938;SDS011;4504;48.810;9.172;2023-09-07T13:26:20;100.67;;;2.20;;
8938;SDS011;4504;48.810;9.172;2023-09-07T13:28:47;99.80;;;1.97;;
8938;SDS011;4504;48.810;9.172;2023-09-07T13:31:14;100.00;;;2.10;;
8938;SDS011;4504;48.810;9.172;2023-09-07T13:33:41;100.60;;;2.77;;
8938;SDS011;4504;48.810;9.172;2023-09-07T13:36:09;104.37;;;2.30;;
8938;SDS011;4504;48.810;9.172;2023-09-07T13:38:36;100.47;;;2.30;;
8938;SDS011;4504;48.810;9.172;2023-09-07T13:41:03;99.17;;;2.30;;
8938;SDS011;4504;48.810;9.172;2023-09-07T13:43:30;100.50;;;2.23;;
8938;SDS011;4504;48.810;9.172;2023-09-07T13:45:57;99.50;;;2.40;;
8938;SDS011;4504;48.810;9.172;2023-09-07T13:48:24;99.70;;;2.23;;
8938;SDS011;4504;48.810;9.172;2023-09-07T13:50:51;100.07;;;2.33;;
8938;SDS011;4504;48.810;9.172;2023-09-07T13:53:19;99.97;;;2.07;;
8938;SDS011;4504;48.810;9.172;2023-09-07T13:55:46;100.67;;;2.70;;
8938;SDS011;4504;48.810;9.172;2023-09-07T13:58:15;100.10;;;2.37;;
8938;SDS011;4504;48.810;9.172;2023-09-07T14:00:42;100.67;;;2.20;;
8938;SDS011;4504;48.810;9.172;2023-09-07T14:03:09;99.30;;;2.00;;
8938;SDS011;4504;48.810;9.172;2023-09-07T14:05:36;97.60;;;1.97;;
8938;SDS011;4504;48.810;9.172;2023-09-07T14:08:03;103.40;;;2.57;;
8938;SDS011;4504;48.810;9.172;2023-09-07T14:10:32;98.87;;;1.80;;
8938;SDS011;4504;48.810;9.172;2023-09-07T14:12:59;100.27;;;2.53;;
8938;SDS011;4504;48.810;9.172;2023-09-07T14:15:26;101.07;;;2.50;;
8938;SDS011;4504;48.810;9.172;2023-09-07T14:17:53;99.77;;;2.30;;
8938;SDS011;4504;48.810;9.172;2023-09-07T14:20:20;99.00;;;1.80;;
8938;SDS011;4504;48.810;9.172;2023-09-07T14:22:48;100.97;;;2.40;;
8938;SDS011;4504;48.810;9.172;2023-09-07T14:25:15;99.73;;;2.00;;
8938;SDS011;4504;48.810;9.172;2023-09-07T14:27:44;100.47;;;2.67;;
8938;SDS011;4504;48.810;9.172;2023-09-07T14:30:11;98.87;;;2.40;;
8938;SDS011;4504;48.810;9.172;2023-09-07T14:32:39;99.80;;;2.43;;
8938;SDS011;4504;48.810;9.172;2023-09-07T14:35:06;100.80;;;2.57;;
8938;SDS011;4504;48.810;9.172;2023-09-07T14:37:34;98.47;;;2.03;;
8938;SDS011;4504;48.810;9.172;2023-09-07T14:40:01;99.63;;;2.30;;
8938;SDS011;4504;48.810;9.172;2023-09-07T14:42:29;98.23;;;2.10;;
8938;SDS011;4504;48.810;9.172;2023-09-07T14:44:57;99.07;;;2.70;;
8938;SDS011;4504;48.810;9.172;2023-09-07T14:47:27;97.70;;;2.10;;
8938;SDS011;4504;48.810;9.172;2023-09-07T14:49:54;98.20;;;2.40;;
8938;SDS011;4504;48.810;9.172;2023-09-07T14:52:21;99.03;;;2.00;;